SAS21V ENTC-BIKF
Flight info
| Callsign | SAS21V |
|---|---|
| Flight time | 2h 47m |
| Altitude | 32000 |
| Route | GILGU DCT LIPSA DCT 68N000W/M078F320 67N010W DCT DEVUD DEVUD3K |
| Aircraft | A321/M-SDE3FGHIRWY/LB1 |
Departure
| Time | 2026-04-27 18:19 |
|---|---|
| Airport | Tromsø Airport (ENTC) |
Arrival
| Time | 2026-04-27 21:06 |
|---|---|
| Airport | Keflavik International Airport (BIKF) |
| Time | Latitude | Longitude | Altitude | Speed | Heading |
|---|---|---|---|---|---|
| 2026-04-27 18:04 | 69.68015 | 18.90956 | 34 ft | 0 kts | 283° |
| 2026-04-27 18:10 | 69.68014 | 18.90959 | 34 ft | 2 kts | 283° |
| 2026-04-27 18:10 | 69.68009 | 18.91030 | 32 ft | 4 kts | 282° |
| 2026-04-27 18:10 | 69.68004 | 18.91106 | 34 ft | 4 kts | 279° |
| 2026-04-27 18:10 | 69.68000 | 18.91183 | 32 ft | 4 kts | 271° |
| 2026-04-27 18:11 | 69.68003 | 18.91257 | 33 ft | 4 kts | 243° |
| 2026-04-27 18:11 | 69.68013 | 18.91291 | 32 ft | 0 kts | 193° |
| 2026-04-27 18:14 | 69.68008 | 18.91288 | 32 ft | 2 kts | 193° |
| 2026-04-27 18:14 | 69.67986 | 18.91272 | 34 ft | 5 kts | 193° |
| 2026-04-27 18:14 | 69.67945 | 18.91245 | 34 ft | 8 kts | 193° |
| 2026-04-27 18:15 | 69.67882 | 18.91205 | 34 ft | 11 kts | 192° |
| 2026-04-27 18:15 | 69.67803 | 18.91156 | 34 ft | 12 kts | 193° |
| 2026-04-27 18:15 | 69.67718 | 18.91096 | 34 ft | 13 kts | 195° |
| 2026-04-27 18:15 | 69.67679 | 18.91067 | 34 ft | 3 kts | 194° |
| 2026-04-27 18:16 | 69.67657 | 18.91060 | 33 ft | 4 kts | 173° |
| 2026-04-27 18:16 | 69.67637 | 18.91112 | 34 ft | 5 kts | 117° |
| 2026-04-27 18:16 | 69.67630 | 18.91183 | 36 ft | 3 kts | 104° |
| 2026-04-27 18:16 | 69.67625 | 18.91244 | 37 ft | 4 kts | 102° |
| 2026-04-27 18:17 | 69.67614 | 18.91350 | 40 ft | 8 kts | 115° |
| 2026-04-27 18:17 | 69.67544 | 18.91365 | 39 ft | 15 kts | 192° |
| 2026-04-27 18:17 | 69.67410 | 18.91281 | 38 ft | 21 kts | 192° |
| 2026-04-27 18:17 | 69.67298 | 18.91169 | 33 ft | 14 kts | 215° |
| 2026-04-27 18:18 | 69.67273 | 18.91221 | 34 ft | 10 kts | 24° |
| 2026-04-27 18:18 | 69.67328 | 18.91240 | 34 ft | 15 kts | 7° |
| 2026-04-27 18:18 | 69.67683 | 18.91454 | 40 ft | 90 kts | 13° |
| 2026-04-27 18:18 | 69.68508 | 18.91998 | 30 ft | 153 kts | 13° |
| 2026-04-27 18:19 | 69.69624 | 18.92733 | 656 ft | 159 kts | 13° |
| 2026-04-27 18:19 | 69.70684 | 18.93531 | 1572 ft | 155 kts | 11° |
| 2026-04-27 18:19 | 69.71762 | 18.94254 | 1976 ft | 167 kts | 10° |
| 2026-04-27 18:19 | 69.72965 | 18.95031 | 2175 ft | 188 kts | 10° |
| 2026-04-27 18:20 | 69.74311 | 18.95907 | 2332 ft | 209 kts | 11° |
| 2026-04-27 18:20 | 69.75794 | 18.96883 | 2648 ft | 224 kts | 11° |
| 2026-04-27 18:20 | 69.77332 | 18.97456 | 3343 ft | 223 kts | 349° |
| 2026-04-27 18:20 | 69.78677 | 18.95419 | 3991 ft | 224 kts | 309° |
| 2026-04-27 18:21 | 69.79357 | 18.91367 | 4697 ft | 227 kts | 288° |
| 2026-04-27 18:21 | 69.79732 | 18.86899 | 5466 ft | 229 kts | 283° |
| 2026-04-27 18:21 | 69.80031 | 18.82347 | 6170 ft | 231 kts | 282° |
| 2026-04-27 18:21 | 69.80325 | 18.77759 | 6889 ft | 233 kts | 283° |
| 2026-04-27 18:22 | 69.80633 | 18.73141 | 7531 ft | 235 kts | 283° |
| 2026-04-27 18:22 | 69.80746 | 18.68392 | 8168 ft | 240 kts | 266° |
| 2026-04-27 18:22 | 69.80327 | 18.63627 | 8677 ft | 255 kts | 249° |
| 2026-04-27 18:22 | 69.79329 | 18.59179 | 9057 ft | 272 kts | 234° |
| 2026-04-27 18:23 | 69.78141 | 18.54862 | 9709 ft | 276 kts | 235° |
| 2026-04-27 18:23 | 69.76950 | 18.50484 | 10371 ft | 279 kts | 235° |
| 2026-04-27 18:23 | 69.75748 | 18.46027 | 10662 ft | 294 kts | 235° |
| 2026-04-27 18:23 | 69.74451 | 18.41203 | 10802 ft | 314 kts | 235° |
| 2026-04-27 18:24 | 69.73069 | 18.36079 | 10941 ft | 332 kts | 235° |
| 2026-04-27 18:24 | 69.71613 | 18.30706 | 11182 ft | 346 kts | 234° |
| 2026-04-27 18:24 | 69.70113 | 18.25204 | 11667 ft | 351 kts | 234° |
| 2026-04-27 18:24 | 69.68590 | 18.19628 | 12201 ft | 355 kts | 234° |
| 2026-04-27 18:25 | 69.67052 | 18.14013 | 12752 ft | 359 kts | 234° |
| 2026-04-27 18:25 | 69.65498 | 18.08360 | 13284 ft | 363 kts | 234° |
| 2026-04-27 18:25 | 69.63921 | 18.02636 | 13813 ft | 367 kts | 234° |
| 2026-04-27 18:25 | 69.62330 | 17.96877 | 14307 ft | 371 kts | 234° |
| 2026-04-27 18:26 | 69.60732 | 17.91114 | 14720 ft | 375 kts | 235° |
| 2026-04-27 18:26 | 69.59101 | 17.85253 | 15161 ft | 378 kts | 235° |
| 2026-04-27 18:26 | 69.57451 | 17.79325 | 15618 ft | 382 kts | 235° |
| 2026-04-27 18:26 | 69.55790 | 17.73364 | 16081 ft | 385 kts | 235° |
| 2026-04-27 18:27 | 69.54107 | 17.67350 | 16534 ft | 389 kts | 236° |
| 2026-04-27 18:27 | 69.52405 | 17.61276 | 16908 ft | 395 kts | 237° |
| 2026-04-27 18:27 | 69.50860 | 17.54826 | 17325 ft | 392 kts | 247° |
| 2026-04-27 18:27 | 69.49749 | 17.47792 | 17743 ft | 388 kts | 258° |
| 2026-04-27 18:28 | 69.49098 | 17.40383 | 18166 ft | 383 kts | 268° |
| 2026-04-27 18:28 | 69.48831 | 17.32868 | 18607 ft | 382 kts | 272° |
| 2026-04-27 18:28 | 69.48590 | 17.25305 | 19005 ft | 384 kts | 272° |
| 2026-04-27 18:28 | 69.48334 | 17.17687 | 19417 ft | 386 kts | 272° |
| 2026-04-27 18:29 | 69.48067 | 17.10044 | 19807 ft | 388 kts | 272° |
| 2026-04-27 18:29 | 69.47795 | 17.02373 | 20194 ft | 390 kts | 272° |
| 2026-04-27 18:29 | 69.47519 | 16.94670 | 20597 ft | 392 kts | 272° |
| 2026-04-27 18:29 | 69.47240 | 16.86915 | 20989 ft | 394 kts | 273° |
| 2026-04-27 18:30 | 69.46958 | 16.79145 | 21376 ft | 395 kts | 273° |
| 2026-04-27 18:30 | 69.46673 | 16.71338 | 21757 ft | 397 kts | 273° |
| 2026-04-27 18:30 | 69.46382 | 16.63476 | 22138 ft | 399 kts | 273° |
| 2026-04-27 18:30 | 69.46085 | 16.55593 | 22514 ft | 401 kts | 274° |
| 2026-04-27 18:31 | 69.45784 | 16.47664 | 22836 ft | 403 kts | 274° |
| 2026-04-27 18:31 | 69.45483 | 16.39824 | 23220 ft | 404 kts | 274° |
| 2026-04-27 18:31 | 69.45172 | 16.31858 | 23576 ft | 406 kts | 274° |
| 2026-04-27 18:31 | 69.44858 | 16.23860 | 23927 ft | 408 kts | 274° |
| 2026-04-27 18:32 | 69.44540 | 16.15826 | 24176 ft | 410 kts | 274° |
| 2026-04-27 18:32 | 69.44215 | 16.07751 | 24457 ft | 412 kts | 274° |
| 2026-04-27 18:32 | 69.43881 | 15.99643 | 24741 ft | 414 kts | 273° |
| 2026-04-27 18:32 | 69.43542 | 15.91494 | 25027 ft | 415 kts | 273° |
| 2026-04-27 18:33 | 69.43199 | 15.83309 | 25310 ft | 417 kts | 273° |
| 2026-04-27 18:33 | 69.42852 | 15.75104 | 25600 ft | 419 kts | 273° |
| 2026-04-27 18:33 | 69.42496 | 15.66868 | 25871 ft | 420 kts | 273° |
| 2026-04-27 18:33 | 69.42133 | 15.58604 | 26153 ft | 422 kts | 273° |
| 2026-04-27 18:34 | 69.41767 | 15.50302 | 26425 ft | 424 kts | 273° |
| 2026-04-27 18:34 | 69.41401 | 15.41969 | 26629 ft | 425 kts | 272° |
| 2026-04-27 18:34 | 69.41032 | 15.33623 | 26932 ft | 426 kts | 272° |
| 2026-04-27 18:34 | 69.40658 | 15.25265 | 27209 ft | 427 kts | 272° |
| 2026-04-27 18:35 | 69.40274 | 15.16867 | 27482 ft | 429 kts | 272° |
| 2026-04-27 18:35 | 69.39889 | 15.08560 | 27738 ft | 431 kts | 272° |
| 2026-04-27 18:35 | 69.39493 | 15.00100 | 27968 ft | 432 kts | 272° |
| 2026-04-27 18:35 | 69.39092 | 14.91639 | 28199 ft | 433 kts | 272° |
| 2026-04-27 18:36 | 69.38685 | 14.83143 | 28414 ft | 435 kts | 271° |
| 2026-04-27 18:36 | 69.38272 | 14.74605 | 28640 ft | 436 kts | 271° |
| 2026-04-27 18:36 | 69.37856 | 14.66077 | 28900 ft | 436 kts | 271° |
| 2026-04-27 18:36 | 69.37435 | 14.57559 | 29205 ft | 435 kts | 271° |
| 2026-04-27 18:37 | 69.37010 | 14.49072 | 29504 ft | 434 kts | 271° |
| 2026-04-27 18:37 | 69.36582 | 14.40600 | 29789 ft | 434 kts | 271° |
| 2026-04-27 18:37 | 69.36152 | 14.32149 | 30013 ft | 433 kts | 271° |
| 2026-04-27 18:37 | 69.35719 | 14.23716 | 30314 ft | 431 kts | 271° |
| 2026-04-27 18:38 | 69.35283 | 14.15312 | 30602 ft | 430 kts | 270° |
| 2026-04-27 18:38 | 69.34851 | 14.07042 | 30833 ft | 430 kts | 270° |
| 2026-04-27 18:38 | 69.34403 | 13.98558 | 31043 ft | 430 kts | 270° |
| 2026-04-27 18:38 | 69.33963 | 13.90289 | 31246 ft | 430 kts | 270° |
| 2026-04-27 18:39 | 69.33512 | 13.81916 | 31442 ft | 430 kts | 270° |
| 2026-04-27 18:39 | 69.33055 | 13.73541 | 31637 ft | 431 kts | 270° |
| 2026-04-27 18:39 | 69.32594 | 13.65164 | 31796 ft | 431 kts | 269° |
| 2026-04-27 18:39 | 69.32126 | 13.56788 | 31982 ft | 431 kts | 269° |
| 2026-04-27 18:40 | 69.31655 | 13.48408 | 32165 ft | 431 kts | 269° |
| 2026-04-27 18:40 | 69.31190 | 13.40040 | 32357 ft | 431 kts | 269° |
| 2026-04-27 18:40 | 69.30273 | 13.23345 | 32379 ft | 428 kts | 269° |
| 2026-04-27 18:41 | 69.29354 | 13.06721 | 32414 ft | 427 kts | 269° |
| 2026-04-27 18:41 | 69.28426 | 12.90269 | 32431 ft | 427 kts | 269° |
| 2026-04-27 18:42 | 69.27623 | 12.76408 | 32433 ft | 427 kts | 268° |
| 2026-04-27 18:42 | 69.26492 | 12.57169 | 32437 ft | 427 kts | 268° |
| 2026-04-27 18:43 | 69.25502 | 12.40633 | 32441 ft | 427 kts | 268° |
| 2026-04-27 18:43 | 69.24498 | 12.24200 | 32443 ft | 428 kts | 268° |
| 2026-04-27 18:44 | 69.23473 | 12.07664 | 32413 ft | 427 kts | 267° |
| 2026-04-27 18:44 | 69.22437 | 11.91177 | 32429 ft | 427 kts | 267° |
| 2026-04-27 18:45 | 69.21388 | 11.74815 | 32439 ft | 427 kts | 267° |
| 2026-04-27 18:45 | 69.20320 | 11.58354 | 32444 ft | 427 kts | 267° |
| 2026-04-27 18:46 | 69.19243 | 11.41908 | 32449 ft | 427 kts | 266° |
| 2026-04-27 18:46 | 69.18140 | 11.25468 | 32456 ft | 427 kts | 266° |
| 2026-04-27 18:47 | 69.17029 | 11.09045 | 32384 ft | 427 kts | 266° |
| 2026-04-27 18:47 | 69.15895 | 10.92661 | 32445 ft | 428 kts | 266° |
| 2026-04-27 18:48 | 69.14747 | 10.76265 | 32456 ft | 428 kts | 265° |
| 2026-04-27 18:48 | 69.13583 | 10.59994 | 32461 ft | 428 kts | 265° |
| 2026-04-27 18:49 | 69.12405 | 10.43633 | 32467 ft | 428 kts | 265° |
| 2026-04-27 18:49 | 69.11212 | 10.27299 | 32467 ft | 428 kts | 265° |
| 2026-04-27 18:50 | 69.09995 | 10.10945 | 32467 ft | 428 kts | 265° |
| 2026-04-27 18:50 | 69.08779 | 9.94752 | 32440 ft | 427 kts | 265° |
| 2026-04-27 18:51 | 69.07533 | 9.78480 | 32465 ft | 426 kts | 264° |
| 2026-04-27 18:51 | 69.06280 | 9.62258 | 32473 ft | 426 kts | 264° |
| 2026-04-27 18:52 | 69.05026 | 9.46174 | 32469 ft | 426 kts | 264° |
| 2026-04-27 18:53 | 69.03316 | 9.24685 | 32472 ft | 425 kts | 264° |
| 2026-04-27 18:53 | 69.02015 | 9.08563 | 32477 ft | 425 kts | 264° |
| 2026-04-27 18:54 | 69.00701 | 8.92454 | 32471 ft | 425 kts | 264° |
| 2026-04-27 18:54 | 68.99369 | 8.76377 | 32468 ft | 426 kts | 264° |
| 2026-04-27 18:55 | 68.98030 | 8.60401 | 32467 ft | 426 kts | 264° |
| 2026-04-27 18:55 | 68.96673 | 8.44360 | 32459 ft | 425 kts | 264° |
| 2026-04-27 18:56 | 68.95302 | 8.28362 | 32463 ft | 425 kts | 263° |
| 2026-04-27 18:56 | 68.93915 | 8.12382 | 32469 ft | 425 kts | 263° |
| 2026-04-27 18:57 | 68.92509 | 7.96431 | 32469 ft | 425 kts | 263° |
| 2026-04-27 18:57 | 68.91089 | 7.80523 | 32467 ft | 423 kts | 263° |
| 2026-04-27 18:58 | 68.89664 | 7.64685 | 32482 ft | 422 kts | 263° |
| 2026-04-27 18:58 | 68.88236 | 7.48985 | 32477 ft | 421 kts | 263° |
| 2026-04-27 18:59 | 68.86787 | 7.33243 | 32484 ft | 421 kts | 263° |
| 2026-04-27 18:59 | 68.85322 | 7.17539 | 32478 ft | 421 kts | 263° |
| 2026-04-27 19:00 | 68.83844 | 7.01869 | 32466 ft | 421 kts | 263° |
| 2026-04-27 19:00 | 68.82350 | 6.86215 | 32447 ft | 420 kts | 262° |
| 2026-04-27 19:01 | 68.80848 | 6.70620 | 32469 ft | 419 kts | 262° |
| 2026-04-27 19:01 | 68.79336 | 6.55067 | 32470 ft | 419 kts | 262° |
| 2026-04-27 19:02 | 68.77812 | 6.39521 | 32472 ft | 419 kts | 262° |
| 2026-04-27 19:02 | 68.76282 | 6.24148 | 32473 ft | 418 kts | 262° |
| 2026-04-27 19:03 | 68.74723 | 6.08674 | 32446 ft | 418 kts | 262° |
| 2026-04-27 19:03 | 68.73159 | 5.93226 | 32453 ft | 418 kts | 262° |
| 2026-04-27 19:04 | 68.71582 | 5.77854 | 32445 ft | 416 kts | 261° |
| 2026-04-27 19:04 | 68.69996 | 5.62565 | 32462 ft | 415 kts | 261° |
| 2026-04-27 19:05 | 68.68392 | 5.47314 | 32467 ft | 415 kts | 261° |
| 2026-04-27 19:05 | 68.66786 | 5.32097 | 32468 ft | 414 kts | 261° |
| 2026-04-27 19:06 | 68.65178 | 5.16994 | 32465 ft | 414 kts | 261° |
| 2026-04-27 19:06 | 68.63542 | 5.01825 | 32457 ft | 414 kts | 261° |
| 2026-04-27 19:07 | 68.61889 | 4.86678 | 32422 ft | 414 kts | 260° |
| 2026-04-27 19:07 | 68.60228 | 4.71593 | 32446 ft | 413 kts | 260° |
| 2026-04-27 19:08 | 68.58551 | 4.56531 | 32456 ft | 413 kts | 260° |
| 2026-04-27 19:08 | 68.56872 | 4.41518 | 32459 ft | 412 kts | 260° |
| 2026-04-27 19:09 | 68.55175 | 4.26535 | 32453 ft | 412 kts | 260° |
| 2026-04-27 19:09 | 68.53469 | 4.11594 | 32452 ft | 412 kts | 259° |
| 2026-04-27 19:10 | 68.51749 | 3.96662 | 32448 ft | 412 kts | 259° |
| 2026-04-27 19:10 | 68.50015 | 3.81771 | 32412 ft | 412 kts | 259° |
| 2026-04-27 19:11 | 68.48267 | 3.66949 | 32418 ft | 410 kts | 259° |
| 2026-04-27 19:11 | 68.46523 | 3.52243 | 32437 ft | 410 kts | 259° |
| 2026-04-27 19:12 | 68.44763 | 3.37499 | 32435 ft | 409 kts | 259° |
| 2026-04-27 19:12 | 68.42992 | 3.22788 | 32434 ft | 409 kts | 259° |
| 2026-04-27 19:13 | 68.41206 | 3.08099 | 32429 ft | 409 kts | 259° |
| 2026-04-27 19:13 | 68.39423 | 2.93563 | 32429 ft | 409 kts | 259° |
| 2026-04-27 19:14 | 68.37613 | 2.78960 | 32407 ft | 408 kts | 258° |
| 2026-04-27 19:14 | 68.35787 | 2.64361 | 32413 ft | 408 kts | 258° |
| 2026-04-27 19:15 | 68.33964 | 2.49834 | 32420 ft | 408 kts | 258° |
| 2026-04-27 19:15 | 68.32124 | 2.35332 | 32423 ft | 408 kts | 258° |
| 2026-04-27 19:16 | 68.30264 | 2.20846 | 32420 ft | 408 kts | 258° |
| 2026-04-27 19:16 | 68.28389 | 2.06402 | 32420 ft | 408 kts | 258° |
| 2026-04-27 19:17 | 68.26511 | 1.91955 | 32417 ft | 407 kts | 258° |
| 2026-04-27 19:17 | 68.24630 | 1.77565 | 32401 ft | 406 kts | 258° |
| 2026-04-27 19:18 | 68.22743 | 1.63298 | 32417 ft | 406 kts | 257° |
| 2026-04-27 19:18 | 68.20826 | 1.48992 | 32422 ft | 406 kts | 257° |
| 2026-04-27 19:19 | 68.18896 | 1.34727 | 32408 ft | 405 kts | 257° |
| 2026-04-27 19:19 | 68.16969 | 1.20469 | 32385 ft | 405 kts | 258° |
| 2026-04-27 19:20 | 68.15027 | 1.06239 | 32386 ft | 405 kts | 258° |
| 2026-04-27 19:20 | 68.13084 | 0.92133 | 32365 ft | 406 kts | 257° |
| 2026-04-27 19:21 | 68.11113 | 0.77962 | 32393 ft | 405 kts | 257° |
| 2026-04-27 19:21 | 68.09133 | 0.63832 | 32398 ft | 404 kts | 257° |
| 2026-04-27 19:22 | 68.07154 | 0.49760 | 32406 ft | 404 kts | 257° |
| 2026-04-27 19:22 | 68.05163 | 0.35714 | 32401 ft | 403 kts | 257° |
| 2026-04-27 19:23 | 68.03152 | 0.21704 | 32402 ft | 404 kts | 257° |
| 2026-04-27 19:23 | 68.01130 | 0.07820 | 32400 ft | 404 kts | 257° |
| 2026-04-27 19:24 | 67.99575 | -0.06327 | 32351 ft | 392 kts | 267° |
| 2026-04-27 19:24 | 67.98629 | -0.20657 | 32366 ft | 392 kts | 267° |
| 2026-04-27 19:25 | 67.97663 | -0.34990 | 32375 ft | 392 kts | 267° |
| 2026-04-27 19:25 | 67.96687 | -0.49190 | 32379 ft | 392 kts | 266° |
| 2026-04-27 19:26 | 67.95688 | -0.63463 | 32384 ft | 392 kts | 266° |
| 2026-04-27 19:26 | 67.94683 | -0.77740 | 32380 ft | 392 kts | 266° |
| 2026-04-27 19:27 | 67.93665 | -0.92012 | 32379 ft | 392 kts | 266° |
| 2026-04-27 19:27 | 67.92635 | -1.06264 | 32379 ft | 392 kts | 266° |
| 2026-04-27 19:28 | 67.91592 | -1.20498 | 32367 ft | 392 kts | 266° |
| 2026-04-27 19:28 | 67.90529 | -1.34732 | 32369 ft | 393 kts | 266° |
| 2026-04-27 19:29 | 67.89467 | -1.48863 | 32369 ft | 393 kts | 266° |
| 2026-04-27 19:29 | 67.88383 | -1.63164 | 32362 ft | 393 kts | 266° |
| 2026-04-27 19:30 | 67.87289 | -1.77364 | 32362 ft | 393 kts | 265° |
| 2026-04-27 19:30 | 67.86187 | -1.91458 | 32325 ft | 393 kts | 265° |
| 2026-04-27 19:31 | 67.85071 | -2.05619 | 32341 ft | 393 kts | 265° |
| 2026-04-27 19:31 | 67.83933 | -2.19767 | 32345 ft | 392 kts | 265° |
| 2026-04-27 19:32 | 67.82784 | -2.33891 | 32337 ft | 392 kts | 265° |
| 2026-04-27 19:32 | 67.81630 | -2.48008 | 32344 ft | 392 kts | 264° |
| 2026-04-27 19:33 | 67.80464 | -2.62118 | 32339 ft | 392 kts | 264° |
| 2026-04-27 19:33 | 67.79289 | -2.76218 | 32320 ft | 392 kts | 264° |
| 2026-04-27 19:34 | 67.78112 | -2.90214 | 32311 ft | 392 kts | 264° |
| 2026-04-27 19:34 | 67.76916 | -3.04290 | 32307 ft | 393 kts | 263° |
| 2026-04-27 19:35 | 67.75697 | -3.18349 | 32312 ft | 393 kts | 263° |
| 2026-04-27 19:35 | 67.74462 | -3.32403 | 32314 ft | 393 kts | 263° |
| 2026-04-27 19:36 | 67.73215 | -3.46461 | 32305 ft | 393 kts | 263° |
| 2026-04-27 19:36 | 67.71967 | -3.60476 | 32304 ft | 393 kts | 263° |
| 2026-04-27 19:37 | 67.70713 | -3.74404 | 32265 ft | 393 kts | 262° |
| 2026-04-27 19:37 | 67.69433 | -3.88420 | 32277 ft | 393 kts | 262° |
| 2026-04-27 19:38 | 67.68141 | -4.02398 | 32284 ft | 393 kts | 262° |
| 2026-04-27 19:38 | 67.66848 | -4.16351 | 32275 ft | 393 kts | 262° |
| 2026-04-27 19:39 | 67.65540 | -4.30285 | 32276 ft | 393 kts | 262° |
| 2026-04-27 19:39 | 67.64210 | -4.44208 | 32277 ft | 393 kts | 262° |
| 2026-04-27 19:40 | 67.62875 | -4.58120 | 32266 ft | 393 kts | 262° |
| 2026-04-27 19:40 | 67.61530 | -4.71939 | 32249 ft | 393 kts | 261° |
| 2026-04-27 19:41 | 67.60173 | -4.85809 | 32241 ft | 392 kts | 261° |
| 2026-04-27 19:41 | 67.59036 | -4.97322 | 32248 ft | 392 kts | 261° |
| 2026-04-27 19:42 | 67.57655 | -5.11154 | 32256 ft | 392 kts | 260° |
| 2026-04-27 19:42 | 67.56033 | -5.27231 | 32239 ft | 392 kts | 260° |
| 2026-04-27 19:43 | 67.54860 | -5.38799 | 32239 ft | 392 kts | 260° |
| 2026-04-27 19:43 | 67.53462 | -5.52511 | 32239 ft | 392 kts | 260° |
| 2026-04-27 19:44 | 67.52036 | -5.66259 | 32209 ft | 392 kts | 259° |
| 2026-04-27 19:44 | 67.50593 | -5.79999 | 32217 ft | 392 kts | 259° |
| 2026-04-27 19:45 | 67.49147 | -5.93704 | 32201 ft | 392 kts | 259° |
| 2026-04-27 19:45 | 67.47691 | -6.07418 | 32203 ft | 392 kts | 258° |
| 2026-04-27 19:46 | 67.46217 | -6.21080 | 32203 ft | 392 kts | 258° |
| 2026-04-27 19:46 | 67.44730 | -6.34752 | 32191 ft | 392 kts | 258° |
| 2026-04-27 19:47 | 67.43238 | -6.48391 | 32179 ft | 391 kts | 257° |
| 2026-04-27 19:47 | 67.41737 | -6.62022 | 32184 ft | 391 kts | 257° |
| 2026-04-27 19:48 | 67.40228 | -6.75531 | 32175 ft | 392 kts | 257° |
| 2026-04-27 19:48 | 67.38697 | -6.89137 | 32149 ft | 392 kts | 257° |
| 2026-04-27 19:49 | 67.37156 | -7.02752 | 32145 ft | 393 kts | 257° |
| 2026-04-27 19:49 | 67.35593 | -7.16360 | 32163 ft | 394 kts | 257° |
| 2026-04-27 19:50 | 67.34018 | -7.29980 | 32153 ft | 394 kts | 257° |
| 2026-04-27 19:50 | 67.32435 | -7.43587 | 32130 ft | 394 kts | 256° |
| 2026-04-27 19:51 | 67.30857 | -7.57097 | 32139 ft | 394 kts | 256° |
| 2026-04-27 19:51 | 67.29249 | -7.70683 | 32127 ft | 395 kts | 256° |
| 2026-04-27 19:52 | 67.27626 | -7.84271 | 32130 ft | 395 kts | 255° |
| 2026-04-27 19:52 | 67.25987 | -7.97831 | 32133 ft | 395 kts | 255° |
| 2026-04-27 19:53 | 67.23519 | -8.18139 | 32123 ft | 395 kts | 255° |
| 2026-04-27 19:53 | 67.21861 | -8.31657 | 32126 ft | 394 kts | 255° |
| 2026-04-27 19:54 | 67.20193 | -8.45130 | 32113 ft | 394 kts | 254° |
| 2026-04-27 19:54 | 67.18507 | -8.58571 | 32115 ft | 394 kts | 254° |
| 2026-04-27 19:55 | 67.16815 | -8.71998 | 32119 ft | 394 kts | 254° |
| 2026-04-27 19:55 | 67.15116 | -8.85397 | 32105 ft | 394 kts | 254° |
| 2026-04-27 19:56 | 67.13401 | -8.98779 | 32098 ft | 394 kts | 254° |
| 2026-04-27 19:56 | 67.11689 | -9.12055 | 32087 ft | 394 kts | 253° |
| 2026-04-27 19:57 | 67.09962 | -9.25396 | 32093 ft | 393 kts | 253° |
| 2026-04-27 19:57 | 67.08209 | -9.38702 | 32096 ft | 393 kts | 253° |
| 2026-04-27 19:58 | 67.06457 | -9.51974 | 32092 ft | 392 kts | 253° |
| 2026-04-27 19:58 | 67.04706 | -9.65217 | 32093 ft | 392 kts | 253° |
| 2026-04-27 19:59 | 67.02940 | -9.78422 | 32075 ft | 392 kts | 252° |
| 2026-04-27 19:59 | 67.01149 | -9.91595 | 32072 ft | 392 kts | 252° |
| 2026-04-27 20:00 | 66.99109 | -10.04451 | 32073 ft | 394 kts | 245° |
| 2026-04-27 20:00 | 66.96581 | -10.16860 | 32062 ft | 394 kts | 245° |
| 2026-04-27 20:01 | 66.94035 | -10.29244 | 32067 ft | 394 kts | 245° |
| 2026-04-27 20:01 | 66.91480 | -10.41615 | 32065 ft | 394 kts | 245° |
| 2026-04-27 20:02 | 66.88937 | -10.53877 | 32052 ft | 394 kts | 245° |
| 2026-04-27 20:02 | 66.86366 | -10.66203 | 32052 ft | 394 kts | 245° |
| 2026-04-27 20:03 | 66.83782 | -10.78487 | 32008 ft | 394 kts | 244° |
| 2026-04-27 20:03 | 66.81186 | -10.90768 | 32022 ft | 394 kts | 244° |
| 2026-04-27 20:04 | 66.78580 | -11.03026 | 32030 ft | 394 kts | 244° |
| 2026-04-27 20:04 | 66.75963 | -11.15231 | 32022 ft | 394 kts | 244° |
| 2026-04-27 20:05 | 66.73369 | -11.27335 | 32033 ft | 394 kts | 244° |
| 2026-04-27 20:05 | 66.70743 | -11.39502 | 32034 ft | 394 kts | 244° |
| 2026-04-27 20:06 | 66.68112 | -11.51632 | 32019 ft | 394 kts | 244° |
| 2026-04-27 20:06 | 66.65465 | -11.63719 | 32022 ft | 393 kts | 243° |
| 2026-04-27 20:07 | 66.62807 | -11.75771 | 32016 ft | 393 kts | 243° |
| 2026-04-27 20:07 | 66.60154 | -11.87770 | 32016 ft | 392 kts | 243° |
| 2026-04-27 20:08 | 66.57498 | -11.99732 | 32015 ft | 392 kts | 243° |
| 2026-04-27 20:08 | 66.54835 | -12.11658 | 32014 ft | 391 kts | 243° |
| 2026-04-27 20:09 | 66.52158 | -12.23557 | 32010 ft | 391 kts | 242° |
| 2026-04-27 20:09 | 66.49477 | -12.35420 | 32009 ft | 391 kts | 242° |
| 2026-04-27 20:10 | 66.46800 | -12.47185 | 32013 ft | 390 kts | 242° |
| 2026-04-27 20:10 | 66.44106 | -12.58958 | 32011 ft | 389 kts | 241° |
| 2026-04-27 20:11 | 66.41420 | -12.70678 | 32000 ft | 388 kts | 241° |
| 2026-04-27 20:11 | 66.38728 | -12.82371 | 31997 ft | 388 kts | 241° |
| 2026-04-27 20:12 | 66.36485 | -12.92033 | 31995 ft | 387 kts | 241° |
| 2026-04-27 20:12 | 66.33312 | -13.05592 | 31949 ft | 388 kts | 241° |
| 2026-04-27 20:13 | 66.30606 | -13.17124 | 31953 ft | 388 kts | 241° |
| 2026-04-27 20:13 | 66.27878 | -13.28686 | 31990 ft | 387 kts | 240° |
| 2026-04-27 20:14 | 66.25148 | -13.40193 | 31988 ft | 386 kts | 240° |
| 2026-04-27 20:14 | 66.22409 | -13.51671 | 31985 ft | 385 kts | 240° |
| 2026-04-27 20:15 | 66.19679 | -13.63065 | 31978 ft | 385 kts | 240° |
| 2026-04-27 20:15 | 66.16938 | -13.74439 | 31974 ft | 385 kts | 240° |
| 2026-04-27 20:16 | 66.14207 | -13.85725 | 31978 ft | 384 kts | 240° |
| 2026-04-27 20:16 | 66.11449 | -13.97025 | 32000 ft | 384 kts | 239° |
| 2026-04-27 20:17 | 66.08696 | -14.08275 | 31992 ft | 382 kts | 239° |
| 2026-04-27 20:17 | 66.06406 | -14.17565 | 31987 ft | 381 kts | 239° |
| 2026-04-27 20:18 | 66.03193 | -14.30588 | 31976 ft | 380 kts | 239° |
| 2026-04-27 20:18 | 66.00439 | -14.41680 | 31972 ft | 379 kts | 238° |
| 2026-04-27 20:19 | 65.97678 | -14.52726 | 31969 ft | 379 kts | 238° |
| 2026-04-27 20:19 | 65.94927 | -14.63659 | 31960 ft | 379 kts | 238° |
| 2026-04-27 20:20 | 65.92153 | -14.74643 | 31988 ft | 378 kts | 237° |
| 2026-04-27 20:20 | 65.89389 | -14.85568 | 31980 ft | 376 kts | 237° |
| 2026-04-27 20:21 | 65.86626 | -14.96417 | 31976 ft | 375 kts | 237° |
| 2026-04-27 20:21 | 65.83875 | -15.07143 | 31976 ft | 375 kts | 237° |
| 2026-04-27 20:22 | 65.81100 | -15.17905 | 31908 ft | 375 kts | 237° |
| 2026-04-27 20:22 | 65.78315 | -15.28673 | 31915 ft | 376 kts | 237° |
| 2026-04-27 20:23 | 65.75514 | -15.39461 | 31926 ft | 377 kts | 237° |
| 2026-04-27 20:23 | 65.72706 | -15.50247 | 31969 ft | 377 kts | 236° |
| 2026-04-27 20:24 | 65.69894 | -15.60966 | 31986 ft | 375 kts | 236° |
| 2026-04-27 20:24 | 65.67080 | -15.71613 | 31986 ft | 375 kts | 236° |
| 2026-04-27 20:25 | 65.64265 | -15.82228 | 31982 ft | 374 kts | 236° |
| 2026-04-27 20:25 | 65.61462 | -15.92756 | 31981 ft | 374 kts | 236° |
| 2026-04-27 20:26 | 65.58639 | -16.03307 | 31971 ft | 373 kts | 236° |
| 2026-04-27 20:26 | 65.55804 | -16.13827 | 31967 ft | 373 kts | 236° |
| 2026-04-27 20:27 | 65.52974 | -16.24310 | 31989 ft | 373 kts | 235° |
| 2026-04-27 20:27 | 65.50142 | -16.34758 | 31974 ft | 372 kts | 235° |
| 2026-04-27 20:28 | 65.47307 | -16.45154 | 31977 ft | 371 kts | 235° |
| 2026-04-27 20:28 | 65.44944 | -16.53780 | 31974 ft | 371 kts | 235° |
| 2026-04-27 20:29 | 65.42105 | -16.64120 | 31966 ft | 371 kts | 234° |
| 2026-04-27 20:29 | 65.38788 | -16.76118 | 31961 ft | 371 kts | 234° |
| 2026-04-27 20:30 | 65.36410 | -16.84676 | 31960 ft | 371 kts | 234° |
| 2026-04-27 20:30 | 65.33544 | -16.94944 | 31958 ft | 371 kts | 234° |
| 2026-04-27 20:31 | 65.30677 | -17.05209 | 31955 ft | 371 kts | 234° |
| 2026-04-27 20:31 | 65.27797 | -17.15469 | 31942 ft | 371 kts | 234° |
| 2026-04-27 20:32 | 65.24904 | -17.25699 | 31897 ft | 373 kts | 234° |
| 2026-04-27 20:32 | 65.21987 | -17.35956 | 31910 ft | 374 kts | 234° |
| 2026-04-27 20:33 | 65.19056 | -17.46222 | 31904 ft | 374 kts | 234° |
| 2026-04-27 20:33 | 65.16124 | -17.56460 | 31911 ft | 374 kts | 234° |
| 2026-04-27 20:34 | 65.13202 | -17.66599 | 31917 ft | 374 kts | 234° |
| 2026-04-27 20:34 | 65.10258 | -17.76801 | 31921 ft | 374 kts | 234° |
| 2026-04-27 20:35 | 65.07300 | -17.86976 | 31925 ft | 374 kts | 233° |
| 2026-04-27 20:35 | 65.04338 | -17.97127 | 31921 ft | 374 kts | 233° |
| 2026-04-27 20:36 | 65.01369 | -18.07247 | 31941 ft | 375 kts | 233° |
| 2026-04-27 20:36 | 64.98389 | -18.17373 | 31944 ft | 374 kts | 233° |
| 2026-04-27 20:37 | 64.95397 | -18.27471 | 31949 ft | 375 kts | 233° |
| 2026-04-27 20:37 | 64.92400 | -18.37529 | 31976 ft | 374 kts | 234° |
| 2026-04-27 20:38 | 64.89437 | -18.47478 | 31970 ft | 372 kts | 234° |
| 2026-04-27 20:38 | 64.86456 | -18.57445 | 31955 ft | 372 kts | 234° |
| 2026-04-27 20:39 | 64.83468 | -18.67356 | 31951 ft | 371 kts | 233° |
| 2026-04-27 20:39 | 64.80480 | -18.77232 | 31977 ft | 371 kts | 233° |
| 2026-04-27 20:40 | 64.77489 | -18.87076 | 31972 ft | 370 kts | 233° |
| 2026-04-27 20:40 | 64.74510 | -18.96843 | 32037 ft | 370 kts | 233° |
| 2026-04-27 20:41 | 64.71548 | -19.06508 | 31949 ft | 360 kts | 232° |
| 2026-04-27 20:41 | 64.68619 | -19.16005 | 31912 ft | 360 kts | 232° |
| 2026-04-27 20:42 | 64.65689 | -19.25486 | 31921 ft | 360 kts | 232° |
| 2026-04-27 20:42 | 64.62740 | -19.34988 | 31916 ft | 363 kts | 232° |
| 2026-04-27 20:43 | 64.59757 | -19.44559 | 31896 ft | 366 kts | 232° |
| 2026-04-27 20:43 | 64.56754 | -19.54157 | 31922 ft | 367 kts | 232° |
| 2026-04-27 20:44 | 64.53754 | -19.63714 | 31974 ft | 368 kts | 232° |
| 2026-04-27 20:44 | 64.50727 | -19.73309 | 31965 ft | 368 kts | 231° |
| 2026-04-27 20:45 | 64.47696 | -19.82864 | 31959 ft | 367 kts | 231° |
| 2026-04-27 20:45 | 64.46177 | -19.87622 | 31748 ft | 366 kts | 231° |
| 2026-04-27 20:45 | 64.44659 | -19.92368 | 30449 ft | 367 kts | 231° |
| 2026-04-27 20:46 | 64.43128 | -19.97153 | 28827 ft | 368 kts | 231° |
| 2026-04-27 20:46 | 64.41612 | -20.01889 | 27379 ft | 364 kts | 231° |
| 2026-04-27 20:46 | 64.40119 | -20.06548 | 26083 ft | 358 kts | 230° |
| 2026-04-27 20:46 | 64.38648 | -20.11129 | 24849 ft | 351 kts | 230° |
| 2026-04-27 20:47 | 64.37200 | -20.15626 | 23711 ft | 345 kts | 230° |
| 2026-04-27 20:47 | 64.35814 | -20.19929 | 23277 ft | 319 kts | 230° |
| 2026-04-27 20:47 | 64.34546 | -20.23867 | 23084 ft | 298 kts | 230° |
| 2026-04-27 20:47 | 64.33313 | -20.27664 | 22775 ft | 295 kts | 230° |
| 2026-04-27 20:48 | 64.32080 | -20.31442 | 22461 ft | 294 kts | 229° |
| 2026-04-27 20:48 | 64.30858 | -20.35184 | 22125 ft | 291 kts | 229° |
| 2026-04-27 20:48 | 64.29657 | -20.38867 | 21801 ft | 290 kts | 230° |
| 2026-04-27 20:48 | 64.28621 | -20.42885 | 21464 ft | 294 kts | 239° |
| 2026-04-27 20:49 | 64.27938 | -20.47358 | 21083 ft | 300 kts | 249° |
| 2026-04-27 20:49 | 64.27615 | -20.52140 | 20688 ft | 304 kts | 254° |
| 2026-04-27 20:49 | 64.27367 | -20.56971 | 20278 ft | 303 kts | 254° |
| 2026-04-27 20:49 | 64.27113 | -20.61790 | 19861 ft | 302 kts | 254° |
| 2026-04-27 20:50 | 64.26859 | -20.66562 | 19454 ft | 300 kts | 254° |
| 2026-04-27 20:50 | 64.26603 | -20.71313 | 19027 ft | 298 kts | 254° |
| 2026-04-27 20:50 | 64.26347 | -20.76042 | 18592 ft | 297 kts | 254° |
| 2026-04-27 20:50 | 64.26089 | -20.80757 | 18157 ft | 296 kts | 254° |
| 2026-04-27 20:51 | 64.25833 | -20.85446 | 17692 ft | 294 kts | 254° |
| 2026-04-27 20:51 | 64.25580 | -20.90020 | 17274 ft | 293 kts | 254° |
| 2026-04-27 20:51 | 64.25320 | -20.94719 | 16839 ft | 291 kts | 254° |
| 2026-04-27 20:51 | 64.25066 | -20.99258 | 16417 ft | 289 kts | 254° |
| 2026-04-27 20:52 | 64.24809 | -21.03832 | 16014 ft | 287 kts | 253° |
| 2026-04-27 20:52 | 64.24551 | -21.08383 | 15597 ft | 286 kts | 253° |
| 2026-04-27 20:52 | 64.24294 | -21.12897 | 15168 ft | 284 kts | 253° |
| 2026-04-27 20:52 | 64.24038 | -21.17398 | 14750 ft | 283 kts | 253° |
| 2026-04-27 20:53 | 64.23779 | -21.21864 | 14347 ft | 281 kts | 253° |
| 2026-04-27 20:53 | 64.23519 | -21.26312 | 13941 ft | 280 kts | 253° |
| 2026-04-27 20:53 | 64.23261 | -21.30744 | 13520 ft | 278 kts | 253° |
| 2026-04-27 20:53 | 64.23007 | -21.35123 | 13099 ft | 277 kts | 253° |
| 2026-04-27 20:54 | 64.22499 | -21.43813 | 12298 ft | 275 kts | 253° |
| 2026-04-27 20:54 | 64.22241 | -21.48145 | 11912 ft | 274 kts | 253° |
| 2026-04-27 20:54 | 64.21982 | -21.52469 | 11524 ft | 273 kts | 253° |
| 2026-04-27 20:55 | 64.21724 | -21.56776 | 11100 ft | 271 kts | 253° |
| 2026-04-27 20:55 | 64.21469 | -21.61034 | 10945 ft | 271 kts | 252° |
| 2026-04-27 20:55 | 64.21207 | -21.65324 | 10611 ft | 271 kts | 252° |
| 2026-04-27 20:55 | 64.20955 | -21.69533 | 10269 ft | 260 kts | 252° |
| 2026-04-27 20:56 | 64.20713 | -21.73584 | 9991 ft | 255 kts | 252° |
| 2026-04-27 20:56 | 64.20462 | -21.77621 | 9871 ft | 255 kts | 252° |
| 2026-04-27 20:56 | 64.20207 | -21.81656 | 9745 ft | 255 kts | 251° |
| 2026-04-27 20:56 | 64.19952 | -21.85690 | 9620 ft | 255 kts | 251° |
| 2026-04-27 20:57 | 64.19698 | -21.89722 | 9545 ft | 254 kts | 251° |
| 2026-04-27 20:57 | 64.19449 | -21.93701 | 8963 ft | 254 kts | 251° |
| 2026-04-27 20:57 | 64.19197 | -21.97716 | 8163 ft | 253 kts | 251° |
| 2026-04-27 20:57 | 64.18948 | -22.01684 | 7886 ft | 252 kts | 252° |
| 2026-04-27 20:58 | 64.18696 | -22.05653 | 7509 ft | 251 kts | 252° |
| 2026-04-27 20:58 | 64.18444 | -22.09608 | 7110 ft | 250 kts | 252° |
| 2026-04-27 20:58 | 64.18193 | -22.13540 | 6710 ft | 249 kts | 252° |
| 2026-04-27 20:58 | 64.17940 | -22.17474 | 6310 ft | 249 kts | 252° |
| 2026-04-27 20:59 | 64.17685 | -22.21397 | 5889 ft | 249 kts | 252° |
| 2026-04-27 20:59 | 64.17428 | -22.25325 | 5472 ft | 249 kts | 252° |
| 2026-04-27 20:59 | 64.17168 | -22.29243 | 5075 ft | 248 kts | 252° |
| 2026-04-27 20:59 | 64.16918 | -22.33084 | 4878 ft | 236 kts | 252° |
| 2026-04-27 21:00 | 64.16701 | -22.36605 | 4603 ft | 215 kts | 251° |
| 2026-04-27 21:00 | 64.16485 | -22.39971 | 4339 ft | 210 kts | 250° |
| 2026-04-27 21:00 | 64.16217 | -22.43256 | 4024 ft | 208 kts | 242° |
| 2026-04-27 21:00 | 64.15727 | -22.46331 | 3600 ft | 200 kts | 239° |
| 2026-04-27 21:01 | 64.15254 | -22.49293 | 3549 ft | 200 kts | 239° |
| 2026-04-27 21:01 | 64.14771 | -22.52301 | 3354 ft | 200 kts | 239° |
| 2026-04-27 21:01 | 64.14302 | -22.55239 | 3092 ft | 191 kts | 237° |
| 2026-04-27 21:01 | 64.13665 | -22.57625 | 3040 ft | 177 kts | 220° |
| 2026-04-27 21:02 | 64.12745 | -22.59378 | 3013 ft | 170 kts | 206° |
| 2026-04-27 21:02 | 64.11688 | -22.60357 | 2695 ft | 162 kts | 192° |
| 2026-04-27 21:02 | 64.10585 | -22.60522 | 2370 ft | 151 kts | 181° |
| 2026-04-27 21:02 | 64.09637 | -22.60526 | 2273 ft | 125 kts | 181° |
| 2026-04-27 21:03 | 64.08832 | -22.60529 | 2130 ft | 109 kts | 183° |
| 2026-04-27 21:03 | 64.08096 | -22.60532 | 1987 ft | 103 kts | 183° |
| 2026-04-27 21:03 | 64.07384 | -22.60534 | 1854 ft | 101 kts | 183° |
| 2026-04-27 21:03 | 64.06683 | -22.60536 | 1720 ft | 101 kts | 182° |
| 2026-04-27 21:04 | 64.05982 | -22.60537 | 1580 ft | 100 kts | 182° |
| 2026-04-27 21:04 | 64.05286 | -22.60538 | 1442 ft | 101 kts | 180° |
| 2026-04-27 21:04 | 64.04578 | -22.60539 | 1306 ft | 102 kts | 179° |
| 2026-04-27 21:04 | 64.03863 | -22.60540 | 1161 ft | 103 kts | 180° |
| 2026-04-27 21:05 | 64.03144 | -22.60540 | 1020 ft | 104 kts | 180° |
| 2026-04-27 21:05 | 64.02415 | -22.60541 | 866 ft | 106 kts | 178° |
| 2026-04-27 21:05 | 64.01677 | -22.60541 | 719 ft | 108 kts | 178° |
| 2026-04-27 21:05 | 64.00925 | -22.60542 | 575 ft | 109 kts | 177° |
| 2026-04-27 21:06 | 64.00158 | -22.60547 | 412 ft | 110 kts | 176° |
| 2026-04-27 21:06 | 63.99395 | -22.60572 | 254 ft | 108 kts | 174° |
| 2026-04-27 21:06 | 63.98662 | -22.60538 | 173 ft | 90 kts | 179° |
| 2026-04-27 21:06 | 63.98338 | -22.60545 | 173 ft | 2 kts | 178° |
| 2026-04-27 21:07 | 63.98309 | -22.60543 | 173 ft | 10 kts | 179° |
| 2026-04-27 21:07 | 63.98191 | -22.60546 | 172 ft | 20 kts | 178° |
| 2026-04-27 21:07 | 63.98030 | -22.60547 | 171 ft | 27 kts | 180° |
| 2026-04-27 21:07 | 63.97798 | -22.60537 | 172 ft | 38 kts | 178° |
| 2026-04-27 21:08 | 63.97544 | -22.60535 | 173 ft | 30 kts | 181° |
| 2026-04-27 21:08 | 63.97437 | -22.60699 | 170 ft | 19 kts | 268° |
| 2026-04-27 21:08 | 63.97488 | -22.60933 | 166 ft | 15 kts | 352° |
| 2026-04-27 21:08 | 63.97591 | -22.60940 | 167 ft | 17 kts | 0° |
| 2026-04-27 21:09 | 63.97728 | -22.60938 | 169 ft | 23 kts | 0° |
| 2026-04-27 21:09 | 63.97905 | -22.60941 | 169 ft | 29 kts | 359° |
| 2026-04-27 21:09 | 63.98098 | -22.60941 | 167 ft | 28 kts | 0° |
| 2026-04-27 21:09 | 63.98291 | -22.60943 | 165 ft | 27 kts | 0° |
| 2026-04-27 21:10 | 63.98429 | -22.60944 | 166 ft | 16 kts | 0° |
| 2026-04-27 21:10 | 63.98539 | -22.60939 | 166 ft | 16 kts | 1° |
| 2026-04-27 21:10 | 63.98651 | -22.60937 | 164 ft | 16 kts | 360° |
| 2026-04-27 21:10 | 63.98765 | -22.60938 | 163 ft | 17 kts | 0° |
| 2026-04-27 21:11 | 63.98867 | -22.60944 | 165 ft | 12 kts | 359° |
| 2026-04-27 21:11 | 63.98946 | -22.60940 | 168 ft | 11 kts | 1° |
| 2026-04-27 21:11 | 63.99027 | -22.60936 | 167 ft | 13 kts | 0° |
| 2026-04-27 21:11 | 63.99140 | -22.60945 | 162 ft | 18 kts | 342° |
| 2026-04-27 21:12 | 63.99174 | -22.61251 | 155 ft | 25 kts | 269° |
| 2026-04-27 21:12 | 63.99172 | -22.61652 | 146 ft | 19 kts | 268° |
| 2026-04-27 21:12 | 63.99173 | -22.61868 | 141 ft | 10 kts | 270° |
| 2026-04-27 21:12 | 63.99200 | -22.61982 | 141 ft | 8 kts | 341° |
| 2026-04-27 21:13 | 63.99233 | -22.62026 | 141 ft | 4 kts | 302° |
| 2026-04-27 21:13 | 63.99240 | -22.62076 | 141 ft | 2 kts | 287° |
| 2026-04-27 21:13 | 63.99241 | -22.62078 | 141 ft | 0 kts | 287° |
| 2026-04-27 21:13 | 63.99242 | -22.62088 | 141 ft | 2 kts | 289° |
| 2026-04-27 21:14 | 63.99259 | -22.62145 | 141 ft | 6 kts | 315° |
| 2026-04-27 21:14 | 63.99281 | -22.62192 | 141 ft | 2 kts | 316° |